LFRZ/SNR METAR and TAF weather

Enter ICAO airport designator
Station Type Date Time Source
LFRZ METAR 2021/01/17 19:30 UTC NOAA

LFRZ 171930Z AUTO 29004KT CAVOK 05/03 Q1030 BECMG 3000 BR


Station Type Date Time Source
LFRZ Decoded METAR 2021/01/17 19:30 UTC NOAA

St-Nazaire, France (LFRZ) 47-19N 002-10W 4M
Jan 17, 2021 - 02:30 PM EST / 2021.01.17 1930 UTC
Wind: from the WNW (290 degrees) at 5 MPH (4 KT):0
Visibility: greater than 7 mile(s):0
Temperature: 41 F (5 C)
Dew Point: 37 F (3 C)
Relative Humidity: 86%
Pressure (altimeter): 30.42 in. Hg (1030 hPa)
ob: LFRZ 171930Z AUTO 29004KT CAVOK 05/03 Q1030 BECMG 3000 BR
cycle: 19

Station Type Date Time Source
LFRZ TAF 2021/01/17 18:21 UTC NOAA

TAF LFRZ 171700Z 1718/1818 30005KT 9999 BKN040
BECMG 1721/1723 VRB02KT 3000 BR
BECMG 1800/1802 0500 FG VV///
BECMG 1809/1811 22010KT 9999 NSW SCT020

Example: see airport list